Time;durP1;ratioP1;P1;durP2;ratioP2;P2;SDS_P1;SDS_P2;PMS_P1;PMS_P2;Temp;Humidity;BMP_temperature;BMP_pressure;BME280_temperature;BME280_humidity;BME280_pressure;Samples;Min_cycle;Max_cycle;Signal;HPM_P1;HPM_P2
2022/05/22 00:01:21;;;;;;;5.82;1.58;;;;;;;19.89;42.59;99057.19;3121851;28;20108;-75
2022/05/22 00:03:09;;;;;;;4.57;1.48;;;;;;;20.45;42.69;99144.25;3062713;28;20056;-75
2022/05/22 00:04:41;;;;;;;5.97;1.75;;;;;;;20.32;42.61;99120.00;3068489;28;20144;-75
2022/05/22 00:06:13;;;;;;;8.13;1.92;;;;;;;20.09;42.52;99074.63;3121947;28;20088;-75
2022/05/22 00:07:46;;;;;;;8.32;1.50;;;;;;;20.33;42.48;99110.25;3121449;28;20144;-76
2022/05/22 00:09:18;;;;;;;5.43;1.40;;;;;;;20.74;42.56;99166.25;3121754;28;20060;-75
2022/05/22 00:10:51;;;;;;;6.72;1.45;;;;;;;20.70;42.70;99160.41;3121855;28;20053;-75
2022/05/22 00:12:22;;;;;;;;;;;;;;;20.74;42.71;99164.44;3122167;28;20053;-75
2022/05/22 00:13:54;;;;;;;5.60;1.48;;;;;;;20.71;42.87;99162.09;3121692;28;19948;-75
2022/05/22 00:15:26;;;;;;;5.55;1.45;;;;;;;20.42;42.90;99107.53;3121149;28;20060;-76
2022/05/22 00:16:59;;;;;;;2.85;1.60;;;;;;;20.30;43.01;99089.38;3122083;28;20053;-75
2022/05/22 00:18:31;;;;;;;6.60;1.98;;;;;;;20.71;42.97;99150.69;3121968;28;20631;-75
2022/05/22 00:20:04;;;;;;;5.50;1.67;;;;;;;19.98;43.07;99027.25;3121175;28;20041;-75
2022/05/22 00:21:36;;;;;;;4.50;1.92;;;;;;;20.34;43.32;99093.38;3121743;28;20056;-76
2022/05/22 00:23:08;;;;;;;2.58;1.30;;;;;;;20.74;43.48;99151.22;3121177;28;20053;-75
2022/05/22 00:24:40;;;;;;;7.25;1.85;;;;;;;20.77;43.34;99158.03;3121721;28;20089;-75
2022/05/22 00:26:12;;;;;;;6.00;1.52;;;;;;;20.72;43.56;99147.06;3121760;28;20053;-76
2022/05/22 00:27:44;;;;;;;3.85;1.45;;;;;;;20.07;43.77;99044.03;3121427;28;20502;-75
2022/05/22 00:29:16;;;;;;;2.58;1.45;;;;;;;20.31;43.65;99083.94;3121878;28;20049;-75
2022/05/22 00:30:48;;;;;;;7.25;2.00;;;;;;;20.09;43.79;99044.72;3115173;28;20136;-75
2022/05/22 00:32:21;;;;;;;2.80;1.40;;;;;;;20.28;43.94;99070.19;3121515;28;20068;-76
2022/05/22 00:33:53;;;;;;;8.32;1.55;;;;;;;20.00;43.92;99041.97;3121882;28;20060;-75
2022/05/22 00:35:25;;;;;;;3.47;1.55;;;;;;;20.54;44.23;99123.22;3121637;28;20574;-75
2022/05/22 00:36:56;;;;;;;4.80;1.60;;;;;;;20.72;44.34;99147.06;3121829;28;20050;-75
2022/05/22 00:38:28;;;;;;;5.43;1.75;;;;;;;19.92;44.47;99018.09;3121575;28;20059;-75
2022/05/22 00:40:00;;;;;;;8.15;1.92;;;;;;;19.99;44.65;99027.09;3121228;28;20049;-74
2022/05/22 00:41:34;;;;;;;3.28;1.60;;;;;;;20.08;44.76;99045.69;3121918;28;20522;-75
2022/05/22 00:43:07;;;;;;;6.25;1.60;;;;;;;20.41;44.75;99091.81;3121409;28;20061;-75
2022/05/22 00:44:39;;;;;;;3.90;1.73;;;;;;;20.15;45.11;99050.22;3121827;28;20107;-75
2022/05/22 00:46:17;;;;;;;4.10;1.67;;;;;;;20.03;44.99;99026.81;3121519;28;20049;-74
2022/05/22 00:47:50;;;;;;;4.32;1.77;;;;;;;20.72;45.13;99139.09;3121100;28;20519;-76
2022/05/22 00:49:28;;;;;;;2.70;1.58;;;;;;;20.05;45.05;99030.94;3121142;28;20437;-76
2022/05/22 00:51:05;;;;;;;4.18;1.50;;;;;;;19.96;45.24;99013.34;3121314;28;20089;-75
2022/05/22 00:52:42;;;;;;;6.05;2.28;;;;;;;20.22;45.17;99047.81;3121421;28;20084;-75
2022/05/22 00:54:20;;;;;;;7.13;2.35;;;;;;;20.66;45.30;99109.63;3121526;28;20084;-74
2022/05/22 00:55:53;;;;;;;6.47;1.85;;;;;;;20.36;45.21;99063.16;3121365;28;20183;-75
2022/05/22 00:57:33;;;;;;;8.73;2.28;;;;;;;20.54;45.15;99092.31;3120678;28;20057;-76
2022/05/22 00:59:08;;;;;;;4.22;1.73;;;;;;;20.20;45.24;99029.47;3121221;28;20076;-75
2022/05/22 01:00:40;;;;;;;3.20;1.45;;;;;;;20.64;45.18;99085.13;3121674;28;20497;-75
2022/05/22 01:02:14;;;;;;;5.97;1.60;;;;;;;20.53;45.50;99071.28;3120950;28;20470;-75
2022/05/22 01:03:46;;;;;;;8.52;1.60;;;;;;;20.40;45.54;99035.44;3121318;28;20049;-75
2022/05/22 01:05:18;;;;;;;9.88;1.88;;;;;;;20.54;45.41;99065.03;3121092;28;20136;-74
2022/05/22 01:06:51;;;;;;;4.18;1.70;;;;;;;20.35;45.67;99023.63;3121061;28;20061;-75
2022/05/22 01:08:23;;;;;;;6.05;2.28;;;;;;;20.28;45.61;99006.72;3120745;28;20139;-75
2022/05/22 01:09:55;;;;;;;2.92;1.88;;;;;;;21.06;45.69;99126.00;3120645;28;20081;-75
2022/05/22 01:11:31;;;;;;;7.63;1.98;;;;;;;20.86;45.77;99090.97;3121130;28;20041;-75
2022/05/22 01:13:06;;;;;;;10.75;2.25;;;;;;;21.07;45.84;99120.56;3121420;28;20056;-75
2022/05/22 01:14:40;;;;;;;3.08;2.00;;;;;;;20.32;46.25;99003.66;3121185;28;20111;-74
2022/05/22 01:16:11;;;;;;;6.30;2.33;;;;;;;21.03;46.02;99110.44;3121084;28;20158;-75
2022/05/22 01:17:46;;;;;;;7.15;2.00;;;;;;;20.43;46.02;99013.16;3120780;28;20053;-75
2022/05/22 01:19:21;;;;;;;6.70;2.25;;;;;;;20.27;45.94;98984.75;3121019;28;20077;-74
2022/05/22 01:20:54;;;;;;;4.32;2.33;;;;;;;20.28;46.01;98983.75;3121214;28;20512;-74
2022/05/22 01:22:28;;;;;;;3.75;1.80;;;;;;;20.54;46.26;99031.47;3121165;28;20416;-77
2022/05/22 01:23:59;;;;;;;8.07;1.90;;;;;;;20.87;45.94;99079.38;3122832;28;20049;-74
2022/05/22 01:25:34;;;;;;;8.15;2.78;;;;;;;20.68;46.32;99041.53;3121056;28;20080;-76
2022/05/22 01:27:10;;;;;;;4.68;1.95;;;;;;;20.86;46.20;99064.50;3120857;28;20045;-76
2022/05/22 01:28:42;;;;;;;2.75;1.83;;;;;;;21.11;46.23;99105.22;3121122;28;20141;-76
2022/05/22 01:30:17;;;;;;;4.70;1.77;;;;;;;20.84;46.07;99061.16;3118952;28;20053;-76
2022/05/22 01:31:48;;;;;;;7.95;2.03;;;;;;;20.65;46.05;99023.31;3120979;28;20493;-76
2022/05/22 01:33:20;;;;;;;5.40;1.85;;;;;;;20.90;46.18;99069.31;3120763;28;20057;-76
2022/05/22 01:34:52;;;;;;;4.20;1.88;;;;;;;20.73;46.16;99029.63;3120054;28;20525;-76
2022/05/22 01:36:24;;;;;;;6.00;2.20;;;;;;;20.42;45.79;98977.94;3119576;28;20057;-76
2022/05/22 01:37:59;;;;;;;9.45;1.98;;;;;;;21.26;46.25;99108.13;3107389;28;20538;-77
2022/05/22 01:39:31;;;;;;;5.28;2.15;;;;;;;20.79;46.23;99031.66;3116695;28;20468;-76
2022/05/22 01:41:03;;;;;;;6.47;2.13;;;;;;;20.92;46.38;99052.47;3120713;28;20069;-76
2022/05/22 01:42:35;;;;;;;4.70;1.98;;;;;;;20.71;46.36;99016.56;3121047;28;20056;-76
2022/05/22 01:44:06;;;;;;;4.68;2.35;;;;;;;20.77;46.33;99015.97;3120726;28;20050;-77
2022/05/22 01:45:40;;;;;;;8.45;2.30;;;;;;;21.27;46.40;99093.94;3120516;28;20526;-76
2022/05/22 01:47:12;;;;;;;4.70;1.88;;;;;;;20.71;46.23;98999.88;3120742;28;20497;-76
2022/05/22 01:48:43;;;;;;;3.47;1.88;;;;;;;21.19;46.28;99078.81;3120555;28;20049;-77
2022/05/22 01:50:16;;;;;;;5.65;2.60;;;;;;;21.34;46.38;99092.31;3120844;28;20056;-76
2022/05/22 01:51:48;;;;;;;4.28;2.17;;;;;;;20.84;45.93;99017.00;3120711;28;20128;-74
2022/05/22 01:53:23;;;;;;;9.88;2.10;;;;;;;21.14;45.90;99058.06;3120044;28;20077;-76
2022/05/22 01:54:55;;;;;;;4.00;2.20;;;;;;;21.48;46.13;99107.66;3120931;28;20049;-76
2022/05/22 01:56:27;;;;;;;6.45;2.08;;;;;;;20.71;46.58;98976.06;3120183;28;20057;-76
2022/05/22 01:57:59;;;;;;;8.15;1.92;;;;;;;20.76;46.52;98982.53;3120402;28;20055;-76
2022/05/22 01:59:31;;;;;;;7.90;2.30;;;;;;;20.89;46.67;99006.78;3120511;28;20067;-75
2022/05/22 02:01:07;;;;;;;7.95;2.05;;;;;;;21.38;46.68;99088.38;3120593;28;20049;-75
2022/05/22 02:02:39;;;;;;;4.43;2.13;;;;;;;21.55;46.43;99097.28;3120606;28;20049;-75
2022/05/22 02:04:11;;;;;;;3.58;2.22;;;;;;;21.00;46.21;99016.31;3119757;28;20073;-75
2022/05/22 02:05:44;;;;;;;3.53;2.13;;;;;;;21.21;46.24;99046.84;3117253;28;20068;-75
2022/05/22 02:09:12;;;;;;;5.80;2.42;;;;;;;20.87;46.35;98984.94;3094461;28;20058;-75
2022/05/22 02:10:44;;;;;;;;;;;;;;;21.65;46.24;99113.06;3109109;28;20144;-76
2022/05/22 02:12:16;;;;;;;7.47;2.35;;;;;;;21.62;46.06;99108.06;3119988;28;19932;-74
2022/05/22 02:13:48;;;;;;;3.25;2.00;;;;;;;21.66;46.39;99114.72;3120456;28;20645;-75
2022/05/22 02:15:20;;;;;;;6.00;2.30;;;;;;;21.62;46.07;99111.53;3120241;28;20045;-75
2022/05/22 02:16:52;;;;;;;4.63;2.30;;;;;;;20.99;46.15;99004.03;3114342;28;20053;-75
2022/05/22 02:18:24;;;;;;;4.18;1.80;;;;;;;21.23;46.00;99037.78;3120561;28;20056;-75
2022/05/22 02:19:57;;;;;;;5.93;2.10;;;;;;;21.21;45.79;99021.22;3119940;28;20053;-75
2022/05/22 02:21:29;;;;;;;6.15;2.30;;;;;;;21.51;45.93;99075.56;3120750;28;20144;-75
2022/05/22 02:23:00;;;;;;;6.07;1.85;;;;;;;21.32;45.43;99034.19;3120425;28;20050;-75
2022/05/22 02:24:34;;;;;;;7.05;2.10;;;;;;;21.79;45.53;99101.88;3120444;28;20060;-75
2022/05/22 02:26:09;;;;;;;;;;;;;;;21.82;45.46;99106.84;3120733;28;20059;-75
2022/05/22 02:27:40;;;;;;;9.63;2.10;;;;;;;21.85;45.45;99108.34;3119978;28;19943;-75
2022/05/22 02:29:12;;;;;;;4.85;2.13;;;;;;;21.67;45.22;99076.63;3120359;28;20060;-75
2022/05/22 02:30:48;;;;;;;6.30;2.17;;;;;;;21.56;45.01;99045.94;3118377;28;20115;-75
2022/05/22 02:32:18;;;;;;;3.60;1.90;;;;;;;21.77;44.80;99085.31;3120369;28;20127;-75
2022/05/22 02:33:50;;;;;;;4.30;2.10;;;;;;;21.96;44.89;99100.97;3120228;28;20049;-75
2022/05/22 02:35:22;;;;;;;6.45;2.08;;;;;;;21.51;44.81;99019.94;3119839;28;20442;-75
2022/05/22 02:36:54;;;;;;;6.75;2.25;;;;;;;21.44;44.46;99007.47;3120738;28;20060;-75
2022/05/22 02:38:26;;;;;;;7.30;2.25;;;;;;;21.60;44.51;99030.56;3120378;28;20072;-75
2022/05/22 02:40:00;;;;;;;3.10;2.00;;;;;;;22.14;44.74;99102.69;3119700;28;20045;-75
2022/05/22 02:41:31;;;;;;;;;;;;;;;22.15;44.66;99105.16;3114654;28;20125;-75
2022/05/22 02:43:03;;;;;;;6.20;2.20;;;;;;;22.15;44.54;99105.16;3120057;28;19944;-75
2022/05/22 02:44:35;;;;;;;7.97;2.00;;;;;;;22.19;44.21;99098.59;3120135;28;20081;-75
2022/05/22 02:46:09;;;;;;;4.70;2.22;;;;;;;21.84;44.50;99043.09;3121460;28;20080;-75
2022/05/22 02:47:41;;;;;;;10.27;2.20;;;;;;;21.83;44.38;99038.75;3122244;28;20061;-75
2022/05/22 02:49:13;;;;;;;14.27;2.70;;;;;;;22.01;44.48;99066.84;3122335;28;20231;-75
2022/05/22 02:50:46;;;;;;;3.72;2.47;;;;;;;21.71;44.54;99011.72;3122997;28;20049;-74
2022/05/22 02:52:18;;;;;;;9.73;2.30;;;;;;;22.25;44.53;99100.59;3122203;28;20561;-75
2022/05/22 02:53:50;;;;;;;8.55;2.30;;;;;;;21.75;44.42;99013.09;3122710;28;20055;-75
2022/05/22 02:55:24;;;;;;;2.67;1.98;;;;;;;22.13;44.38;99071.88;3122471;28;20111;-75
2022/05/22 02:56:56;;;;;;;3.22;2.08;;;;;;;21.68;44.19;99001.44;3122907;28;20458;-75
2022/05/22 02:58:28;;;;;;;7.20;2.38;;;;;;;21.64;44.19;98982.38;3122614;28;20526;-74
2022/05/22 03:00:00;;;;;;;3.92;1.88;;;;;;;21.96;44.42;99041.81;3122317;28;20060;-75
2022/05/22 03:01:32;;;;;;;3.42;2.30;;;;;;;22.33;44.16;99113.06;3122748;28;20053;-75
2022/05/22 03:03:04;;;;;;;4.03;2.05;;;;;;;21.78;44.43;99018.06;3122290;28;20163;-75
2022/05/22 03:04:36;;;;;;;4.20;2.50;;;;;;;22.30;44.33;99101.94;3122830;28;20049;-74
2022/05/22 03:07:57;;;;;;;4.85;1.92;;;;;;;22.10;44.77;99069.53;3122535;28;20080;-75
2022/05/22 03:09:28;;;;;;;5.25;2.45;;;;;;;21.94;44.72;99049.91;3116135;28;20065;-76
2022/05/22 03:11:05;;;;;;;4.80;2.35;;;;;;;22.30;44.60;99108.06;3122244;28;20076;-75
2022/05/22 03:12:37;;;;;;;3.00;2.20;;;;;;;22.06;44.61;99078.78;3122359;28;20132;-75
2022/05/22 03:14:10;;;;;;;7.97;2.33;;;;;;;21.85;44.26;99031.50;3122742;28;20122;-75
2022/05/22 03:15:42;;;;;;;;;;;;;;;22.31;44.57;99123.00;3123050;28;20519;-75
2022/05/22 03:17:15;;;;;;;4.72;2.53;;;;;;;22.32;44.44;99124.66;3122615;28;19987;-75
2022/05/22 03:18:46;;;;;;;4.88;2.28;;;;;;;21.99;44.51;99074.13;3121572;28;20049;-75
2022/05/22 03:20:18;;;;;;;5.00;2.50;;;;;;;22.09;44.48;99094.38;3122566;28;20131;-76
2022/05/22 03:21:49;;;;;;;5.57;2.13;;;;;;;21.67;44.76;99021.81;3116158;28;20053;-76
2022/05/22 03:23:22;;;;;;;7.20;2.45;;;;;;;21.51;44.63;98984.66;3122360;28;20064;-75
2022/05/22 03:24:54;;;;;;;4.57;2.42;;;;;;;21.79;44.88;99049.69;3122228;28;20737;-76
2022/05/22 03:26:27;;;;;;;5.53;2.42;;;;;;;22.12;45.01;99109.97;3122317;28;20055;-75
2022/05/22 03:27:59;;;;;;;6.13;2.80;;;;;;;21.73;45.25;99036.25;3122443;28;20186;-75
2022/05/22 03:29:32;;;;;;;5.97;2.70;;;;;;;21.61;44.68;99013.69;3122050;28;20049;-75
2022/05/22 03:31:04;;;;;;;10.35;3.28;;;;;;;21.98;44.93;99079.59;3119968;28;20061;-75
2022/05/22 03:32:35;;;;;;;6.55;2.45;;;;;;;22.25;45.13;99116.53;3122668;28;20075;-75
2022/05/22 03:34:06;;;;;;;4.10;2.60;;;;;;;21.61;45.15;99014.50;3122288;28;20096;-75
2022/05/22 03:35:38;;;;;;;7.70;2.67;;;;;;;21.90;45.02;99047.75;3121779;28;20060;-76
2022/05/22 03:37:11;;;;;;;8.77;2.75;;;;;;;21.89;45.01;99054.88;3122169;28;20053;-75
2022/05/22 03:38:43;;;;;;;7.82;2.92;;;;;;;21.61;45.26;99003.09;3119503;28;20590;-75
2022/05/22 03:40:16;;;;;;;7.18;2.72;;;;;;;22.13;45.27;99087.78;3122119;28;20484;-76
2022/05/22 03:41:49;;;;;;;8.80;2.87;;;;;;;22.15;45.22;99093.72;3122287;28;20164;-76
2022/05/22 03:43:21;;;;;;;14.10;3.13;;;;;;;22.17;45.34;99097.91;3122009;28;20057;-76
2022/05/22 03:44:54;;;;;;;8.00;2.85;;;;;;;21.68;45.21;99017.34;3121594;28;20136;-76
2022/05/22 03:46:25;;;;;;;5.07;2.83;;;;;;;22.29;45.08;99108.25;3116107;28;20057;-76
2022/05/22 03:47:57;;;;;;;5.97;2.95;;;;;;;21.97;45.03;99046.94;3121969;28;20148;-76
2022/05/22 03:49:28;;;;;;;5.72;2.67;;;;;;;21.84;45.08;99038.63;3122093;28;20509;-77
2022/05/22 03:51:00;;;;;;;6.35;2.85;;;;;;;21.89;44.89;99038.97;3122000;28;20049;-77
2022/05/22 03:52:32;;;;;;;5.80;2.63;;;;;;;22.47;44.72;99124.88;3122195;28;20057;-76
2022/05/22 03:54:04;;;;;;;5.90;2.80;;;;;;;22.28;44.87;99083.53;3122058;28;20518;-77
2022/05/22 03:55:36;;;;;;;6.72;2.42;;;;;;;21.86;44.58;99004.00;3121965;28;20533;-76
2022/05/22 03:57:11;;;;;;;7.50;2.30;;;;;;;22.43;44.61;99095.19;3121595;28;20061;-76
2022/05/22 03:58:43;;;;;;;6.05;2.78;;;;;;;22.16;44.52;99059.13;3121618;28;20053;-76
2022/05/22 04:00:17;;;;;;;5.03;2.15;;;;;;;22.61;44.38;99132.19;3122053;28;20077;-76
2022/05/22 04:01:50;;;;;;;7.07;2.22;;;;;;;22.39;43.92;99090.34;3120408;28;20130;-76
2022/05/22 04:03:22;;;;;;;6.20;2.58;;;;;;;22.64;44.37;99128.38;3120783;28;20246;-76
2022/05/22 04:04:54;;;;;;;7.97;2.60;;;;;;;22.64;44.17;99120.44;3122120;28;20103;-75
2022/05/22 04:06:26;;;;;;;4.53;2.42;;;;;;;22.34;44.15;99074.94;3121851;28;20045;-76
2022/05/22 04:07:58;;;;;;;4.32;2.20;;;;;;;22.09;44.21;99030.75;3122449;28;20220;-76
2022/05/22 04:09:30;;;;;;;6.22;2.53;;;;;;;22.45;44.15;99082.59;3115300;28;20079;-78
2022/05/22 04:11:07;;;;;;;7.50;2.60;;;;;;;22.68;43.65;99121.75;3121582;28;20478;-76
2022/05/22 04:12:42;;;;;;;7.55;2.80;;;;;;;22.77;44.04;99135.88;3121984;28;20136;-76
2022/05/22 04:14:14;;;;;;;3.80;2.35;;;;;;;22.06;43.91;99021.28;3121912;28;20523;-75
2022/05/22 04:15:46;;;;;;;9.98;2.42;;;;;;;22.15;44.10;99035.38;3121635;28;20541;-75
2022/05/22 04:17:18;;;;;;;7.07;2.63;;;;;;;22.25;44.02;99049.38;3121914;28;20054;-76
2022/05/22 04:18:50;;;;;;;9.23;2.42;;;;;;;22.31;43.86;99058.53;3121423;28;20077;-76
2022/05/22 04:20:22;;;;;;;9.65;2.50;;;;;;;22.16;43.75;99029.94;3121889;28;20045;-75
2022/05/22 04:21:53;;;;;;;5.82;2.38;;;;;;;22.47;43.42;99085.88;3121728;28;20053;-75
2022/05/22 04:25:15;;;;;;;10.65;3.20;;;;;;;22.45;43.65;99076.44;3121645;28;20128;-75
2022/05/22 04:26:47;;;;;;;;;;;;;;;22.88;43.36;99144.34;3115725;28;20060;-75
2022/05/22 04:28:20;;;;;;;5.13;2.25;;;;;;;22.17;43.44;99028.16;3121627;28;19974;-75
2022/05/22 04:29:52;;;;;;;;;;;;;;;22.88;43.13;99149.66;3121845;28;20135;-76
2022/05/22 04:31:24;;;;;;;4.90;2.58;;;;;;;22.39;43.19;99074.44;3119560;28;19932;-76
2022/05/22 04:32:56;;;;;;;4.25;2.40;;;;;;;22.92;42.83;99151.00;3121628;28;20049;-76
2022/05/22 04:34:28;;;;;;;4.00;2.05;;;;;;;22.95;42.61;99157.81;3121303;28;20542;-75
2022/05/22 04:35:59;;;;;;;4.95;2.20;;;;;;;22.91;42.26;99146.69;3121396;28;20053;-75
2022/05/22 04:37:31;;;;;;;6.22;2.20;;;;;;;22.51;42.18;99077.59;3121429;28;20056;-75
2022/05/22 04:39:04;;;;;;;4.55;1.98;;;;;;;22.53;41.96;99075.63;3121521;28;20061;-75
2022/05/22 04:40:36;;;;;;;4.35;2.10;;;;;;;22.65;42.27;99100.84;3121720;28;20057;-75
2022/05/22 04:42:08;;;;;;;3.90;2.40;;;;;;;22.30;41.96;99031.13;3120806;28;20053;-76
2022/05/22 04:43:42;;;;;;;4.95;2.47;;;;;;;22.90;41.83;99137.06;3121516;28;20130;-76
2022/05/22 04:45:13;;;;;;;;;;;;;;;23.01;41.82;99153.69;3121884;28;20063;-77
2022/05/22 04:46:45;;;;;;;6.80;2.85;;;;;;;22.66;42.07;99097.22;3121196;28;19921;-75
2022/05/22 04:48:17;;;;;;;7.05;2.75;;;;;;;22.38;41.94;99048.91;3121409;28;20222;-76
2022/05/22 04:49:50;;;;;;;12.10;2.60;;;;;;;23.05;41.44;99152.38;3121159;28;20057;-76
2022/05/22 04:51:22;;;;;;;5.40;2.00;;;;;;;22.62;41.46;99085.25;3121405;28;20063;-76
2022/05/22 04:52:56;;;;;;;5.38;1.88;;;;;;;22.61;41.26;99067.69;3121348;28;20056;-76
2022/05/22 04:54:28;;;;;;;6.25;2.17;;;;;;;22.61;41.20;99071.16;3121186;28;20064;-76
2022/05/22 04:56:00;;;;;;;5.93;2.13;;;;;;;22.76;41.04;99084.63;3121611;28;20084;-76
2022/05/22 04:57:32;;;;;;;6.63;2.50;;;;;;;22.98;41.02;99122.16;3121344;28;20059;-76
2022/05/22 04:59:06;;;;;;;8.88;2.58;;;;;;;22.68;40.65;99071.31;3121058;28;20084;-76
2022/05/22 05:00:38;;;;;;;6.30;1.98;;;;;;;22.80;40.55;99088.59;3121453;28;20064;-76
2022/05/22 05:02:10;;;;;;;3.60;2.00;;;;;;;23.34;40.36;99163.34;3121397;28;20132;-76
2022/05/22 05:03:42;;;;;;;6.95;2.20;;;;;;;23.13;40.19;99124.00;3121178;28;20439;-76
2022/05/22 05:05:14;;;;;;;3.95;2.17;;;;;;;23.04;40.54;99090.47;3121419;28;20140;-76
2022/05/22 05:06:46;;;;;;;4.22;2.25;;;;;;;22.71;40.24;99039.97;3121062;28;20136;-76
2022/05/22 05:08:18;;;;;;;3.58;2.10;;;;;;;23.46;40.13;99155.03;3121075;28;20053;-76
2022/05/22 05:09:50;;;;;;;6.25;2.03;;;;;;;22.96;40.06;99071.06;3120884;28;20416;-76
2022/05/22 05:11:22;;;;;;;3.17;2.10;;;;;;;23.04;39.82;99079.00;3121234;28;20045;-76
2022/05/22 05:12:55;;;;;;;5.10;2.20;;;;;;;23.19;39.81;99095.09;3121372;28;20534;-76
2022/05/22 05:14:28;;;;;;;2.13;1.65;;;;;;;23.10;39.89;99081.84;3121067;28;20140;-76
2022/05/22 05:16:04;;;;;;;3.17;1.85;;;;;;;23.37;39.55;99123.16;3123390;28;20042;-76
2022/05/22 05:17:36;;;;;;;5.63;1.77;;;;;;;23.23;39.70;99094.59;3120877;28;20107;-76
2022/05/22 05:19:08;;;;;;;4.10;2.17;;;;;;;23.50;39.19;99140.41;3120167;28;20049;-76
2022/05/22 05:20:41;;;;;;;10.25;2.45;;;;;;;23.54;39.31;99136.41;3121194;28;20164;-77
2022/05/22 05:22:15;;;;;;;5.10;2.40;;;;;;;23.55;39.31;99130.91;3120993;28;20049;-77
2022/05/22 05:23:47;;;;;;;6.18;1.88;;;;;;;23.54;38.95;99131.06;3120964;28;20487;-77
2022/05/22 05:25:19;;;;;;;4.88;1.95;;;;;;;23.32;38.96;99090.94;3121175;28;20057;-77
2022/05/22 05:26:54;;;;;;;3.63;2.08;;;;;;;23.50;38.77;99117.31;3120888;28;20592;-76
2022/05/22 05:28:26;;;;;;;15.77;2.00;;;;;;;23.55;38.45;99130.91;3120710;28;20591;-76
2022/05/22 05:29:59;;;;;;;3.70;1.85;;;;;;;23.36;38.48;99092.25;3120001;28;20079;-77
2022/05/22 05:31:31;;;;;;;4.05;1.60;;;;;;;23.50;38.47;99108.50;3119634;28;20045;-76
2022/05/22 05:33:03;;;;;;;5.28;2.13;;;;;;;23.16;38.46;99048.47;3121015;28;20717;-76
2022/05/22 05:34:35;;;;;;;3.47;1.52;;;;;;;23.54;38.36;99105.31;3120877;28;20060;-76
2022/05/22 05:36:09;;;;;;;2.92;2.10;;;;;;;23.64;38.46;99112.31;3120781;28;20132;-76
2022/05/22 05:37:41;;;;;;;4.20;2.05;;;;;;;23.29;38.18;99069.19;3120182;28;20123;-75
2022/05/22 05:39:14;;;;;;;4.75;1.70;;;;;;;23.19;37.90;99041.97;3120663;28;20064;-75
2022/05/22 05:40:49;;;;;;;7.07;1.98;;;;;;;23.81;37.96;99144.03;3120443;28;20053;-75
2022/05/22 05:42:23;;;;;;;3.40;1.92;;;;;;;23.42;37.86;99081.94;3120636;28;20132;-75
2022/05/22 05:43:55;;;;;;;4.65;2.10;;;;;;;23.47;37.78;99090.25;3120894;28;20088;-76
2022/05/22 05:45:28;;;;;;;5.10;2.03;;;;;;;23.89;38.08;99156.44;3120793;28;20049;-76
2022/05/22 05:47:00;;;;;;;;;;;;;;;23.88;37.67;99153.97;3121130;28;20052;-76
2022/05/22 05:48:32;;;;;;;9.93;2.30;;;;;;;23.30;37.61;99050.41;3120816;28;19967;-76
2022/05/22 05:50:05;;;;;;;4.28;2.17;;;;;;;23.90;37.41;99146.63;3120523;28;20057;-76
2022/05/22 05:51:37;;;;;;;;;;;;;;;24.02;37.37;99158.59;3121533;28;20079;-77
2022/05/22 05:53:09;;;;;;;6.63;2.40;;;;;;;24.06;37.36;99158.06;3120648;28;19929;-75
2022/05/22 05:54:41;;;;;;;7.70;2.40;;;;;;;23.75;37.13;99099.50;3120772;28;20049;-75
2022/05/22 05:56:13;;;;;;;6.85;2.10;;;;;;;24.17;36.85;99151.56;3120830;28;20453;-76
2022/05/22 05:57:46;;;;;;;2.97;1.80;;;;;;;24.02;36.58;99113.38;3120389;28;20068;-75
2022/05/22 05:59:18;;;;;;;10.75;2.10;;;;;;;23.88;36.38;99090.16;3120705;28;20054;-75
2022/05/22 06:00:51;;;;;;;4.82;2.03;;;;;;;23.88;35.89;99082.19;3120851;28;20104;-76
2022/05/22 06:02:23;;;;;;;;;;;;;;;24.39;35.99;99149.94;3121305;28;20052;-76
2022/05/22 06:03:55;;;;;;;5.18;2.08;;;;;;;23.97;36.06;99076.66;3120923;28;19953;-76
2022/05/22 06:05:26;;;;;;;4.50;1.35;;;;;;;24.33;35.71;99117.88;3119448;28;20135;-77
2022/05/22 06:06:58;;;;;;;6.40;2.28;;;;;;;24.59;35.22;99158.38;3120674;28;20388;-76
2022/05/22 06:08:30;;;;;;;3.50;1.73;;;;;;;24.36;35.44;99101.56;3120387;28;20436;-77
2022/05/22 06:10:02;;;;;;;4.68;1.63;;;;;;;24.45;35.47;99108.53;3122590;28;20136;-77
2022/05/22 06:11:34;;;;;;;8.43;1.70;;;;;;;24.17;35.28;99055.78;3123622;28;20049;-76
2022/05/22 06:13:07;;;;;;;2.70;2.00;;;;;;;24.83;35.38;99144.06;3120254;28;20107;-76
2022/05/22 06:14:39;;;;;;;;;;;;;;;24.96;34.79;99156.78;3120725;28;20458;-76
2022/05/22 06:16:12;;;;;;;8.23;1.88;;;;;;;24.63;34.14;99103.75;3120629;28;19921;-76
2022/05/22 06:17:47;;;;;;;16.05;2.13;;;;;;;24.84;33.10;99118.25;3113869;28;20155;-76
2022/05/22 06:19:53;;;;;;;7.90;1.75;;;;;;;24.93;32.78;99117.19;3119795;28;20083;-77
2022/05/22 06:21:14;;;;;;;10.77;1.70;;;;;;;24.73;32.64;99085.72;3119714;28;20041;-76
2022/05/22 06:22:46;;;;;;;7.93;1.95;;;;;;;24.43;32.97;99023.56;3120725;28;20056;-77
2022/05/22 06:24:18;;;;;;;8.25;1.67;;;;;;;24.69;33.11;99057.78;3120649;28;20060;-77
2022/05/22 06:25:50;;;;;;;14.90;1.88;;;;;;;25.14;32.70;99128.06;3120147;28;20053;-77
2022/05/22 06:27:23;;;;;;;7.47;1.80;;;;;;;25.37;32.76;99149.31;3120708;28;20049;-77
2022/05/22 06:28:55;;;;;;;3.10;1.87;;;;;;;25.29;32.67;99127.25;3120175;28;20053;-77
2022/05/22 06:30:27;;;;;;;4.88;1.50;;;;;;;25.03;32.41;99087.66;3117847;28;20052;-77
2022/05/22 06:31:59;;;;;;;5.43;1.80;;;;;;;25.29;31.94;99119.25;3120451;28;20061;-77
2022/05/22 06:33:32;;;;;;;10.77;1.70;;;;;;;25.49;32.09;99146.22;3119421;28;20471;-77
2022/05/22 06:35:04;;;;;;;7.90;1.60;;;;;;;25.45;32.18;99137.78;3114668;28;20144;-77
2022/05/22 06:36:36;;;;;;;6.25;1.52;;;;;;;25.19;31.65;99082.22;3120424;28;20068;-77
2022/05/22 06:38:08;;;;;;;8.75;1.70;;;;;;;25.41;31.52;99112.50;3120376;28;20531;-77
2022/05/22 06:39:52;;;;;;;7.00;1.45;;;;;;;25.39;31.13;99095.84;3120503;28;20632;-76
2022/05/22 06:41:23;;;;;;;2.95;1.60;;;;;;;25.48;30.87;99102.75;3120455;28;20084;-76
2022/05/22 06:42:59;;;;;;;6.00;1.48;;;;;;;25.48;30.79;99081.44;3120580;28;20057;-77
2022/05/22 06:44:29;;;;;;;4.03;1.48;;;;;;;25.38;31.01;99049.72;3120546;28;20986;-76
2022/05/22 06:46:01;;;;;;;8.48;1.80;;;;;;;25.55;30.57;99085.00;3120300;28;20045;-77
2022/05/22 06:47:36;;;;;;;5.47;1.50;;;;;;;25.71;30.58;99101.84;3120382;28;20088;-77
2022/05/22 06:49:08;;;;;;;10.45;2.03;;;;;;;25.95;30.18;99122.13;3119859;28;20084;-77
2022/05/22 06:50:40;;;;;;;3.42;1.48;;;;;;;25.73;30.26;99084.63;3120948;28;20124;-77
2022/05/22 06:52:12;;;;;;;8.27;1.48;;;;;;;26.33;30.42;99181.53;3120192;28;20060;-76
2022/05/22 06:53:44;;;;;;;4.43;1.23;;;;;;;25.87;30.45;99102.50;3120399;28;20046;-77
2022/05/22 06:55:17;;;;;;;4.13;1.38;;;;;;;25.66;30.24;99054.41;3120499;28;20052;-76
2022/05/22 06:56:49;;;;;;;6.43;1.15;;;;;;;25.79;30.71;99075.06;3120469;28;20143;-77
2022/05/22 06:58:21;;;;;;;7.75;1.45;;;;;;;25.86;30.50;99094.72;3120365;28;20053;-77
2022/05/22 06:59:55;;;;;;;3.70;1.20;;;;;;;26.01;30.42;99124.03;3120522;28;20145;-77
2022/05/22 07:01:27;;;;;;;5.28;1.40;;;;;;;26.04;30.38;99123.66;3120180;28;20060;-77
2022/05/22 07:03:01;;;;;;;4.32;1.45;;;;;;;25.90;30.48;99108.50;3120611;28;20584;-77
2022/05/22 07:04:33;;;;;;;5.00;1.05;;;;;;;25.51;30.32;99054.41;3120210;28;20053;-77
2022/05/22 07:06:05;;;;;;;3.83;1.40;;;;;;;25.58;29.99;99075.81;3120331;28;20049;-77
2022/05/22 07:07:37;;;;;;;6.85;1.75;;;;;;;25.55;30.34;99082.34;3120184;28;20064;-77
2022/05/22 07:09:09;;;;;;;8.10;1.20;;;;;;;25.91;30.23;99140.34;3119582;28;20073;-77
2022/05/22 07:12:30;;;;;;;2.92;1.20;;;;;;;25.58;30.48;99095.31;3120597;28;20045;-76
2022/05/22 07:14:02;;;;;;;9.02;1.40;;;;;;;25.69;30.02;99119.88;3119885;28;20112;-77
2022/05/22 07:15:34;;;;;;;7.45;1.67;;;;;;;25.78;30.45;99137.44;3120057;28;20053;-77
2022/05/22 07:17:08;;;;;;;5.65;1.70;;;;;;;25.51;30.28;99107.72;3120041;28;20169;-76
2022/05/22 07:18:41;;;;;;;6.53;1.60;;;;;;;25.82;30.58;99174.28;3119748;28;20105;-76
2022/05/22 07:20:13;;;;;;;3.20;1.30;;;;;;;25.56;30.82;99148.00;3113579;28;20060;-76
2022/05/22 07:21:45;;;;;;;3.40;1.50;;;;;;;25.22;31.06;99097.00;3120469;28;20060;-76
2022/05/22 07:23:17;;;;;;;6.90;1.35;;;;;;;25.11;31.04;99082.25;3119949;28;20144;-76
2022/05/22 07:24:49;;;;;;;8.18;1.60;;;;;;;25.40;31.24;99145.47;3120366;28;20050;-76
2022/05/22 07:26:21;;;;;;;5.35;1.60;;;;;;;25.53;31.13;99180.34;3120156;28;20057;-76